createdAt,value
2023-03-06T00:00:54.641Z,10.85
2023-03-06T00:03:23.708Z,10.68
2023-03-06T00:05:51.214Z,11.80
2023-03-06T00:08:18.741Z,11.60
2023-03-06T00:10:46.822Z,10.20
2023-03-06T00:13:17.070Z,11.07
2023-03-06T00:15:45.125Z,17.00
2023-03-06T00:18:13.546Z,18.75
2023-03-06T00:20:42.699Z,22.13
2023-03-06T00:23:11.203Z,27.30
2023-03-06T00:25:42.926Z,19.87
2023-03-06T00:28:12.312Z,23.90
2023-03-06T00:30:40.441Z,24.02
2023-03-06T00:33:07.984Z,20.00
2023-03-06T00:35:35.570Z,17.33
2023-03-06T00:38:05.163Z,20.65
2023-03-06T00:40:33.365Z,18.50
2023-03-06T00:43:00.895Z,20.58
2023-03-06T00:45:28.778Z,19.45
2023-03-06T00:47:56.353Z,17.30
2023-03-06T00:50:25.014Z,19.27
2023-03-06T00:52:52.886Z,23.55
2023-03-06T00:55:20.939Z,21.10
2023-03-06T00:57:48.873Z,19.30
2023-03-06T01:00:17.288Z,16.53
2023-03-06T01:02:44.767Z,16.58
2023-03-06T01:05:13.656Z,15.65
2023-03-06T01:07:41.564Z,14.18
2023-03-06T01:10:10.088Z,13.45
2023-03-06T01:12:37.624Z,16.13
2023-03-06T01:15:06.876Z,14.57
2023-03-06T01:17:35.363Z,13.52
2023-03-06T01:20:04.792Z,13.52
2023-03-06T01:22:32.663Z,11.05
2023-03-06T01:25:00.113Z,14.13
2023-03-06T01:27:27.606Z,13.02
2023-03-06T01:29:55.513Z,13.32
2023-03-06T01:32:23.077Z,13.00
2023-03-06T01:34:50.725Z,13.48
2023-03-06T01:37:18.766Z,12.17
2023-03-06T01:39:46.280Z,14.35
2023-03-06T01:42:13.817Z,12.52
2023-03-06T01:45:01.593Z,12.40
2023-03-06T01:47:29.184Z,12.35
2023-03-06T01:50:00.756Z,13.63
2023-03-06T01:52:33.134Z,13.23
2023-03-06T01:55:07.658Z,13.52
2023-03-06T01:57:42.795Z,10.35
2023-03-06T02:00:17.441Z,12.60
2023-03-06T02:02:50.350Z,11.97
2023-03-06T02:05:17.994Z,12.32
2023-03-06T02:07:47.513Z,11.63
2023-03-06T02:10:16.300Z,9.90
2023-03-06T02:12:46.294Z,9.82
2023-03-06T02:15:17.420Z,11.47
2023-03-06T02:17:47.023Z,14.13
2023-03-06T02:20:29.293Z,12.98
2023-03-06T02:23:12.249Z,11.07
2023-03-06T02:25:50.620Z,10.48
2023-03-06T02:28:22.373Z,13.20
2023-03-06T02:30:52.120Z,11.65
2023-03-06T02:33:23.420Z,12.55
2023-03-06T02:35:54.971Z,11.57
2023-03-06T02:38:28.291Z,14.00
2023-03-06T02:40:58.158Z,11.23
2023-03-06T02:43:31.808Z,10.25
2023-03-06T02:45:59.370Z,11.55
2023-03-06T02:48:27.250Z,12.95
2023-03-06T02:50:54.717Z,11.38
2023-03-06T02:53:22.573Z,11.67
2023-03-06T02:55:50.847Z,13.55
2023-03-06T02:58:21.751Z,14.20
2023-03-06T03:00:49.802Z,12.68
2023-03-06T03:03:18.620Z,14.02
2023-03-06T03:05:46.535Z,13.73
2023-03-06T03:08:14.624Z,10.13
2023-03-06T03:10:43.151Z,13.68
2023-03-06T03:13:10.648Z,13.93
2023-03-06T03:15:38.873Z,14.18
2023-03-06T03:18:06.753Z,14.33
2023-03-06T03:20:34.266Z,12.90
2023-03-06T03:23:01.793Z,12.73
2023-03-06T03:25:29.651Z,12.55
2023-03-06T03:27:57.570Z,13.35
2023-03-06T03:30:25.838Z,13.17
2023-03-06T03:32:53.697Z,12.75
2023-03-06T03:35:21.291Z,13.98
2023-03-06T03:37:48.835Z,15.20
2023-03-06T03:40:17.016Z,12.07
2023-03-06T03:42:44.518Z,11.70
2023-03-06T03:45:13.151Z,13.65
2023-03-06T03:47:41.229Z,15.07
2023-03-06T03:50:10.119Z,16.20
2023-03-06T03:52:37.797Z,12.73
2023-03-06T03:55:06.211Z,13.40
2023-03-06T03:57:33.788Z,10.57
2023-03-06T04:00:01.816Z,12.93
2023-03-06T04:02:30.459Z,13.98
2023-03-06T04:04:59.040Z,12.60
2023-03-06T04:07:26.974Z,13.60
2023-03-06T04:09:54.795Z,15.05
2023-03-06T04:12:22.695Z,15.23
2023-03-06T04:14:50.354Z,16.50
2023-03-06T04:17:18.189Z,15.05
2023-03-06T04:19:46.072Z,16.73
2023-03-06T04:22:13.579Z,13.57
2023-03-06T04:24:41.247Z,16.55
2023-03-06T04:27:09.620Z,9.85
2023-03-06T04:29:37.197Z,15.48
2023-03-06T04:32:19.721Z,12.88
2023-03-06T04:34:49.274Z,11.43
2023-03-06T04:37:20.856Z,12.88
2023-03-06T04:39:49.085Z,10.80
2023-03-06T04:42:16.646Z,12.55
2023-03-06T04:44:44.627Z,13.52
2023-03-06T04:47:13.215Z,14.40
2023-03-06T04:49:40.751Z,14.63
2023-03-06T04:52:08.520Z,13.00
2023-03-06T04:54:36.343Z,15.63
2023-03-06T04:57:04.046Z,12.63
2023-03-06T04:59:31.576Z,12.45
2023-03-06T05:01:59.382Z,14.18
2023-03-06T05:04:26.827Z,15.93
2023-03-06T05:06:54.278Z,13.02
2023-03-06T05:09:22.156Z,13.32
2023-03-06T05:11:49.634Z,12.60
2023-03-06T05:14:17.211Z,17.65
2023-03-06T05:16:46.518Z,12.87
2023-03-06T05:19:14.126Z,16.83
2023-03-06T05:21:41.694Z,14.02
2023-03-06T05:24:09.873Z,12.23
2023-03-06T05:26:37.487Z,15.30
2023-03-06T05:29:04.967Z,11.80
2023-03-06T05:31:33.016Z,16.08
2023-03-06T05:34:00.769Z,14.00
2023-03-06T05:36:28.297Z,12.80
2023-03-06T05:38:56.075Z,14.70
2023-03-06T05:41:23.652Z,13.33
2023-03-06T05:43:53.109Z,14.25
2023-03-06T05:46:20.881Z,11.95
2023-03-06T05:48:48.509Z,12.25
2023-03-06T05:51:16.061Z,17.58
2023-03-06T05:53:43.870Z,13.87
2023-03-06T05:56:11.430Z,14.93
2023-03-06T05:58:39.403Z,13.13
2023-03-06T06:01:12.759Z,15.98
2023-03-06T06:03:40.905Z,13.93
2023-03-06T06:06:10.744Z,13.10
2023-03-06T06:08:38.571Z,15.93
2023-03-06T06:11:08.174Z,15.20
2023-03-06T06:13:36.550Z,16.50
2023-03-06T06:16:16.589Z,14.55
2023-03-06T06:18:44.546Z,14.77
2023-03-06T06:21:14.801Z,15.02
2023-03-06T06:23:43.190Z,13.68
2023-03-06T06:26:11.467Z,12.13
2023-03-06T06:28:39.059Z,15.40
2023-03-06T06:31:12.213Z,16.57
2023-03-06T06:33:41.215Z,15.63
2023-03-06T06:36:16.772Z,13.32
2023-03-06T06:38:44.884Z,14.25
2023-03-06T06:41:35.996Z,14.70
2023-03-06T06:44:01.070Z,18.43
2023-03-06T06:47:10.863Z,16.40
2023-03-06T06:49:17.384Z,14.30
2023-03-06T06:51:45.739Z,17.10
2023-03-06T06:54:13.357Z,17.48
2023-03-06T06:56:41.270Z,13.27
2023-03-06T06:59:16.729Z,18.60
2023-03-06T07:01:45.488Z,22.25
2023-03-06T07:04:13.803Z,19.55
2023-03-06T07:06:42.923Z,15.50
2023-03-06T07:09:13.185Z,14.40
2023-03-06T07:11:41.651Z,13.57
2023-03-06T07:14:09.239Z,14.75
2023-03-06T07:16:37.085Z,16.48
2023-03-06T07:19:04.727Z,15.07
2023-03-06T07:21:33.774Z,13.80
2023-03-06T07:24:01.678Z,12.80
2023-03-06T07:26:29.243Z,14.10
2023-03-06T07:28:56.736Z,16.33
2023-03-06T07:31:26.984Z,15.50
2023-03-06T07:33:55.470Z,14.33
2023-03-06T07:36:24.497Z,16.95
2023-03-06T07:38:52.335Z,18.20
2023-03-06T07:41:22.345Z,16.40
2023-03-06T07:43:50.469Z,15.32
2023-03-06T07:46:18.573Z,14.73
2023-03-06T07:48:46.058Z,15.50
2023-03-06T07:51:18.314Z,13.85
2023-03-06T07:53:46.889Z,16.87
2023-03-06T07:56:14.802Z,12.90
2023-03-06T07:58:47.386Z,17.27
2023-03-06T08:01:18.390Z,18.08
2023-03-06T08:03:47.368Z,14.15
2023-03-06T08:06:17.772Z,12.98
2023-03-06T08:08:47.359Z,16.58
2023-03-06T08:11:18.143Z,14.40
2023-03-06T08:13:46.860Z,15.40
2023-03-06T08:16:15.670Z,15.90
2023-03-06T08:18:45.842Z,15.05
2023-03-06T08:21:16.623Z,14.43
2023-03-06T08:23:44.900Z,14.60
2023-03-06T08:26:17.798Z,15.48
2023-03-06T08:28:46.148Z,15.13
2023-03-06T08:31:38.171Z,17.27
2023-03-06T08:34:09.714Z,18.35
2023-03-06T08:36:37.533Z,14.17
2023-03-06T08:39:05.903Z,16.87
2023-03-06T08:41:34.754Z,14.55
2023-03-06T08:44:02.399Z,13.00
2023-03-06T08:46:31.115Z,21.17
2023-03-06T08:48:59.110Z,18.57
2023-03-06T08:51:28.075Z,14.98
2023-03-06T08:53:57.345Z,14.70
2023-03-06T08:56:30.729Z,17.62
2023-03-06T08:59:00.493Z,16.52
2023-03-06T09:01:31.289Z,14.13
2023-03-06T09:04:01.875Z,14.25
2023-03-06T09:06:32.654Z,15.00
2023-03-06T09:09:00.510Z,20.33
2023-03-06T09:11:28.416Z,15.45
2023-03-06T09:13:57.167Z,12.13
2023-03-06T09:16:25.335Z,14.75
2023-03-06T09:18:54.085Z,13.43
2023-03-06T09:21:23.135Z,16.70
2023-03-06T09:23:51.340Z,16.70
2023-03-06T09:26:19.394Z,16.43
2023-03-06T09:28:47.215Z,15.30
2023-03-06T09:31:19.934Z,15.23
2023-03-06T09:33:48.696Z,14.73
2023-03-06T09:36:19.499Z,12.10
2023-03-06T09:38:48.379Z,15.37
2023-03-06T09:41:30.455Z,16.02
2023-03-06T09:44:28.995Z,16.12
2023-03-06T09:46:59.765Z,15.15
2023-03-06T09:49:46.272Z,16.37
2023-03-06T09:52:40.038Z,14.07
2023-03-06T09:55:30.013Z,14.55
2023-03-06T09:58:18.189Z,15.35
2023-03-06T10:01:07.183Z,14.70
2023-03-06T10:03:51.124Z,14.82
2023-03-06T10:06:26.536Z,15.03
2023-03-06T10:08:57.050Z,15.25
2023-03-06T10:12:18.361Z,12.40
2023-03-06T10:14:54.100Z,12.18
2023-03-06T10:17:23.917Z,14.15
2023-03-06T10:19:52.605Z,14.80
2023-03-06T10:22:30.853Z,14.35
2023-03-06T10:25:17.007Z,15.57
2023-03-06T10:27:47.827Z,15.45
2023-03-06T10:30:36.816Z,12.98
2023-03-06T10:33:29.075Z,14.83
2023-03-06T10:35:57.266Z,14.10
2023-03-06T10:38:37.822Z,14.55
2023-03-06T10:41:11.723Z,15.85
2023-03-06T10:43:42.175Z,18.52
2023-03-06T10:46:12.731Z,16.30
2023-03-06T10:48:42.417Z,17.65
2023-03-06T10:51:21.218Z,24.92
2023-03-06T10:53:58.099Z,16.92
2023-03-06T10:56:27.276Z,14.85
2023-03-06T10:59:12.965Z,18.37
2023-03-06T11:01:51.385Z,15.45
2023-03-06T11:04:33.470Z,15.07
2023-03-06T11:07:05.988Z,16.62
2023-03-06T11:09:33.781Z,15.15
2023-03-06T11:12:35.551Z,19.37
2023-03-06T11:15:15.249Z,15.65
2023-03-06T11:18:04.525Z,17.55
2023-03-06T11:20:48.404Z,16.23
2023-03-06T11:23:42.082Z,17.12
2023-03-06T11:26:27.793Z,15.00
2023-03-06T11:29:24.846Z,16.90
2023-03-06T11:31:56.992Z,22.80
2023-03-06T11:34:56.696Z,18.27
2023-03-06T11:37:32.969Z,14.98
2023-03-06T11:40:13.720Z,14.33
2023-03-06T11:42:49.813Z,15.88
2023-03-06T11:45:39.374Z,13.98
2023-03-06T11:48:17.556Z,16.27
2023-03-06T11:50:49.269Z,19.55
2023-03-06T11:53:20.006Z,16.73
2023-03-06T11:56:18.440Z,17.45
2023-03-06T11:59:03.549Z,14.60
2023-03-06T12:01:41.878Z,17.30
2023-03-06T12:04:24.823Z,16.02
2023-03-06T12:07:31.435Z,18.37
2023-03-06T12:10:08.371Z,18.95
2023-03-06T12:12:38.508Z,17.48
2023-03-06T12:15:21.095Z,16.83
2023-03-06T12:18:02.186Z,15.57
2023-03-06T12:20:48.623Z,16.33
2023-03-06T12:23:38.000Z,16.33
2023-03-06T12:26:43.390Z,16.27
2023-03-06T12:29:23.174Z,18.05
2023-03-06T12:32:08.568Z,12.23
2023-03-06T12:35:19.694Z,16.90
2023-03-06T12:38:02.541Z,15.98
2023-03-06T12:40:42.106Z,18.75
2023-03-06T12:43:34.537Z,15.80
2023-03-06T12:46:17.837Z,18.42
2023-03-06T12:49:01.899Z,16.80
2023-03-06T12:51:30.454Z,18.05
2023-03-06T12:54:00.785Z,19.73
2023-03-06T12:56:30.211Z,14.63
2023-03-06T12:59:02.531Z,19.42
2023-03-06T13:02:14.919Z,16.53
2023-03-06T13:05:00.272Z,15.70
2023-03-06T13:07:45.736Z,20.58
2023-03-06T13:10:16.530Z,22.95
2023-03-06T13:13:05.175Z,20.35
2023-03-06T13:15:42.980Z,21.90
2023-03-06T13:18:36.646Z,19.75
2023-03-06T13:21:04.943Z,21.20
2023-03-06T13:23:32.368Z,22.50
2023-03-06T13:26:04.809Z,15.55
2023-03-06T13:28:50.632Z,15.53
2023-03-06T13:31:36.406Z,19.48
2023-03-06T13:34:25.361Z,22.33
2023-03-06T13:36:52.910Z,18.77
2023-03-06T13:39:20.697Z,15.40
2023-03-06T13:41:57.278Z,17.30
2023-03-06T13:44:25.093Z,16.95
2023-03-06T13:47:20.616Z,16.15
2023-03-06T13:49:48.907Z,14.93
2023-03-06T13:52:29.377Z,17.42
2023-03-06T13:55:38.231Z,21.60
2023-03-06T13:58:27.878Z,16.90
2023-03-06T14:01:10.277Z,12.70
2023-03-06T14:04:27.344Z,14.95
2023-03-06T14:07:06.815Z,13.57
2023-03-06T14:09:46.821Z,17.03
2023-03-06T14:12:24.096Z,15.45
2023-03-06T14:14:57.838Z,15.35
2023-03-06T14:17:29.263Z,18.10
2023-03-06T14:20:01.492Z,15.05
2023-03-06T14:22:29.007Z,20.93
2023-03-06T14:25:14.365Z,13.48
2023-03-06T14:27:43.915Z,14.02
2023-03-06T14:30:15.437Z,14.48
2023-03-06T14:32:43.782Z,15.57
2023-03-06T14:35:23.277Z,19.13
2023-03-06T14:37:53.398Z,20.10
2023-03-06T14:40:27.961Z,18.75
2023-03-06T14:43:22.017Z,17.65
2023-03-06T14:45:55.593Z,18.05
2023-03-06T14:48:25.798Z,19.23
2023-03-06T14:50:57.248Z,20.35
2023-03-06T14:53:28.831Z,16.83
2023-03-06T14:56:00.487Z,19.23
2023-03-06T14:58:49.789Z,16.52
2023-03-06T15:01:26.059Z,20.73
2023-03-06T15:03:56.867Z,17.95
2023-03-06T15:06:29.814Z,15.45
2023-03-06T15:09:09.445Z,16.83
2023-03-06T15:11:57.909Z,16.73
2023-03-06T15:14:34.109Z,14.10
2023-03-06T15:17:25.060Z,19.52
2023-03-06T15:19:55.580Z,16.45
2023-03-06T15:22:50.502Z,17.52
2023-03-06T15:25:23.798Z,19.08
2023-03-06T15:27:57.645Z,13.37
2023-03-06T15:30:34.315Z,13.15
2023-03-06T15:33:19.565Z,16.42
2023-03-06T15:36:01.900Z,16.58
2023-03-06T15:38:41.991Z,16.35
2023-03-06T15:41:37.808Z,13.23
2023-03-06T15:44:14.471Z,16.35
2023-03-06T15:46:42.708Z,14.15
2023-03-06T15:49:14.938Z,17.48
2023-03-06T15:51:42.885Z,19.00
2023-03-06T15:56:43.886Z,15.50
2023-03-06T15:59:21.707Z,19.00
2023-03-06T16:01:50.583Z,19.05
2023-03-06T16:04:20.000Z,16.90
2023-03-06T16:06:48.486Z,21.27
2023-03-06T16:09:16.070Z,23.05
2023-03-06T16:11:44.996Z,22.00
2023-03-06T16:14:20.091Z,21.83
2023-03-06T16:16:48.491Z,20.60
2023-03-06T16:19:25.946Z,25.43
2023-03-06T16:21:56.470Z,20.77
2023-03-06T16:24:26.175Z,20.75
2023-03-06T16:26:55.074Z,24.92
2023-03-06T16:29:26.134Z,21.12
2023-03-06T16:31:56.443Z,21.80
2023-03-06T16:34:24.597Z,21.95
2023-03-06T16:36:52.183Z,22.25
2023-03-06T16:39:23.358Z,18.40
2023-03-06T16:41:51.720Z,19.15
2023-03-06T16:44:19.922Z,17.90
2023-03-06T16:46:50.052Z,29.17
2023-03-06T16:49:20.735Z,24.87
2023-03-06T16:51:48.991Z,25.90
2023-03-06T16:54:16.837Z,22.73
2023-03-06T16:56:45.197Z,23.57
2023-03-06T16:59:13.391Z,25.85
2023-03-06T17:01:44.912Z,22.20
2023-03-06T17:04:12.947Z,22.48
2023-03-06T17:06:41.916Z,24.23
2023-03-06T17:09:14.329Z,23.40
2023-03-06T17:11:44.961Z,26.95
2023-03-06T17:14:12.755Z,22.10
2023-03-06T17:16:40.454Z,19.62
2023-03-06T17:19:12.146Z,23.92
2023-03-06T17:21:39.677Z,26.13
2023-03-06T17:24:07.394Z,22.60
2023-03-06T17:26:37.125Z,22.10
2023-03-06T17:29:06.952Z,21.62
2023-03-06T17:31:35.023Z,23.48
2023-03-06T17:34:02.465Z,20.63
2023-03-06T17:36:31.858Z,22.30
2023-03-06T17:39:02.008Z,21.05
2023-03-06T17:41:30.001Z,26.77
2023-03-06T17:43:58.479Z,40.15
2023-03-06T17:46:26.490Z,46.43
2023-03-06T17:48:55.240Z,48.53
2023-03-06T17:51:23.011Z,43.58
2023-03-06T17:53:52.225Z,43.00
2023-03-06T17:56:19.847Z,35.88
2023-03-06T17:58:47.711Z,29.13
2023-03-06T18:01:19.237Z,29.35
2023-03-06T18:03:49.296Z,32.25
2023-03-06T18:06:18.510Z,27.55
2023-03-06T18:08:46.652Z,25.55
2023-03-06T18:11:14.965Z,23.23
2023-03-06T18:13:44.555Z,20.17
2023-03-06T18:16:14.317Z,19.70
2023-03-06T18:18:42.301Z,16.77
2023-03-06T18:21:12.469Z,17.60
2023-03-06T18:23:40.971Z,14.93
2023-03-06T18:26:14.295Z,13.62
2023-03-06T18:28:44.692Z,12.13
2023-03-06T18:31:15.620Z,12.40
2023-03-06T18:33:43.112Z,11.63
2023-03-06T18:36:11.100Z,11.27
2023-03-06T18:38:40.232Z,10.15
2023-03-06T18:41:09.094Z,7.93
2023-03-06T18:43:37.235Z,10.18
2023-03-06T18:46:05.912Z,7.45
2023-03-06T18:48:33.641Z,8.27
2023-03-06T18:51:06.516Z,10.05
2023-03-06T18:53:35.682Z,9.40
2023-03-06T18:56:04.037Z,8.57
2023-03-06T18:58:31.637Z,9.57
2023-03-06T19:01:02.259Z,12.73
2023-03-06T19:03:29.851Z,12.37
2023-03-06T19:05:59.163Z,9.13
2023-03-06T19:08:27.007Z,7.75
2023-03-06T19:10:54.479Z,8.23
2023-03-06T19:13:22.008Z,8.43
2023-03-06T19:15:50.009Z,11.57
2023-03-06T19:18:18.205Z,8.07
2023-03-06T19:20:45.708Z,9.55
2023-03-06T19:23:14.128Z,6.82
2023-03-06T19:25:41.790Z,7.37
2023-03-06T19:28:09.324Z,9.35
2023-03-06T19:30:40.481Z,9.65
2023-03-06T19:33:07.935Z,8.50
2023-03-06T19:35:35.886Z,8.95
2023-03-06T19:38:03.804Z,8.57
2023-03-06T19:40:31.295Z,12.10
2023-03-06T19:42:58.836Z,10.98
2023-03-06T19:45:26.625Z,14.18
2023-03-06T19:47:56.145Z,10.43
2023-03-06T19:50:28.479Z,13.00
2023-03-06T19:52:57.422Z,11.15
2023-03-06T19:55:26.425Z,9.68
2023-03-06T19:57:54.413Z,9.30
2023-03-06T20:00:22.458Z,11.27
2023-03-06T20:02:50.690Z,10.43
2023-03-06T20:05:18.277Z,8.60
2023-03-06T20:07:45.780Z,9.20
2023-03-06T20:10:13.614Z,9.30
2023-03-06T20:12:41.203Z,11.98
2023-03-06T20:15:09.307Z,7.43
2023-03-06T20:17:40.446Z,11.38
2023-03-06T20:20:09.923Z,12.37
2023-03-06T20:22:37.705Z,11.63
2023-03-06T20:25:05.884Z,13.75
2023-03-06T20:27:33.914Z,13.77
2023-03-06T20:30:01.920Z,11.55
2023-03-06T20:32:29.513Z,12.05
2023-03-06T20:34:57.045Z,16.85
2023-03-06T20:37:24.911Z,16.67
2023-03-06T20:39:52.766Z,21.17
2023-03-06T20:42:20.365Z,21.77
2023-03-06T20:44:48.161Z,19.75
2023-03-06T20:47:15.702Z,23.40
2023-03-06T20:49:43.173Z,21.52
2023-03-06T20:52:11.159Z,21.97
2023-03-06T20:54:38.871Z,20.12
2023-03-06T20:57:06.448Z,22.73
2023-03-06T20:59:34.326Z,22.23
2023-03-06T21:02:02.007Z,22.00
2023-03-06T21:04:29.774Z,23.43
2023-03-06T21:06:57.617Z,23.05
2023-03-06T21:09:25.131Z,24.70
2023-03-06T21:11:52.665Z,25.17
2023-03-06T21:14:20.490Z,22.33
2023-03-06T21:16:48.106Z,22.73
2023-03-06T21:19:15.687Z,21.12
2023-03-06T21:21:43.553Z,21.90
2023-03-06T21:24:11.268Z,23.15
2023-03-06T21:26:38.802Z,23.62
2023-03-06T21:29:06.857Z,20.53
2023-03-06T21:31:34.563Z,19.92
2023-03-06T21:34:04.903Z,21.02
2023-03-06T21:36:33.831Z,18.02
2023-03-06T21:39:01.459Z,18.58
2023-03-06T21:41:30.642Z,19.43
2023-03-06T21:44:03.800Z,20.95
2023-03-06T21:46:32.253Z,22.35
2023-03-06T21:49:02.792Z,22.52
2023-03-06T21:51:30.268Z,27.62
2023-03-06T21:53:59.045Z,25.23
2023-03-06T21:56:28.509Z,28.30
2023-03-06T21:58:58.067Z,27.62
2023-03-06T22:01:28.434Z,25.98
2023-03-06T22:03:57.514Z,28.00
2023-03-06T22:06:26.821Z,27.17
2023-03-06T22:08:56.125Z,25.08
2023-03-06T22:11:25.668Z,22.62
2023-03-06T22:13:53.549Z,22.55
2023-03-06T22:16:21.267Z,24.58
2023-03-06T22:18:50.780Z,20.83
2023-03-06T22:21:20.782Z,22.70
2023-03-06T22:23:57.628Z,18.55
2023-03-06T22:26:29.490Z,16.23
2023-03-06T22:28:57.055Z,25.73
2023-03-06T22:31:28.432Z,25.67
2023-03-06T22:33:58.613Z,28.83
2023-03-06T22:36:27.859Z,31.65
2023-03-06T22:38:58.283Z,31.77
2023-03-06T22:41:27.108Z,26.73
2023-03-06T22:43:58.957Z,23.23
2023-03-06T22:46:27.036Z,16.92
2023-03-06T22:49:00.722Z,25.77
2023-03-06T22:51:29.646Z,29.50
2023-03-06T22:53:57.622Z,30.85
2023-03-06T22:56:25.479Z,27.80
2023-03-06T22:58:53.443Z,28.12
2023-03-06T23:01:23.427Z,25.65
2023-03-06T23:03:53.374Z,19.55
2023-03-06T23:06:25.541Z,17.20
2023-03-06T23:08:57.382Z,13.80
2023-03-06T23:11:27.855Z,16.35
2023-03-06T23:14:14.828Z,25.10
2023-03-06T23:17:00.665Z,32.28
2023-03-06T23:19:49.720Z,31.95
2023-03-06T23:22:36.220Z,35.30
2023-03-06T23:25:22.368Z,22.23
2023-03-06T23:27:50.191Z,15.00
2023-03-06T23:30:17.808Z,19.10
2023-03-06T23:32:46.118Z,15.82
2023-03-06T23:35:14.499Z,17.60
2023-03-06T23:37:42.156Z,15.82
2023-03-06T23:40:10.839Z,15.68
2023-03-06T23:42:38.637Z,19.70
2023-03-06T23:45:07.375Z,18.02
2023-03-06T23:47:35.089Z,17.57
2023-03-06T23:50:03.142Z,16.77
2023-03-06T23:52:30.639Z,14.10
2023-03-06T23:54:58.105Z,15.35
2023-03-06T23:57:25.882Z,15.15
2023-03-06T23:59:53.539Z,15.33
